Reno, NV (89501)

7:29 PM PST on February 28, 2015 (GMT -0800)
UNR Campus, LMR Roof | Change Station
CLOSE
Current Station
Personal Weather Station
Location: Reno, NV
Elevation: 4570 ft
Nearby Weather Stations

Elev 4570 ft 39.54 °N, 119.81 °W | Updated 1 minute ago

Overcast
Overcast
36.6 °F
Feels Like 34 °F
N
3.3
Wind Variable Wind from ENE
Gusts 0.0 mph

Today
High -- | Low -- °F
--% Chance of Precip.
Yesterday
High -- | Low -- °F
Precip. -- in
6:33 AM 5:50 PM
Waxing Gibbous, 82% visible
Pressure 29.86 in
Visibility 10.0 miles
Clouds Scattered Clouds 1500 ft
Scattered Clouds 4500 ft
Mostly Cloudy 8000 ft
Overcast 15000 ft
Windchill 34 °F
Dew Point 34 °F
Humidity 89%
Rainfall 0.23 in
Snow Depth Not available.
UV 0 out of 12
Pollen .70 out of 12
Air Quality Not available.
Flu Activity Not available.
METAR KRNO 010255Z 13004KT 10SM SCT015 SCT045 BKN080 OVC150 02/01 A2985 RMK AO2 SLP111 60000 T00220011 53013 $

More Conditions Fewer Conditions

Pressure 29.86 in
Visibility 10.0 miles
Clouds Scattered Clouds 1500 ft
Scattered Clouds 4500 ft
Mostly Cloudy 8000 ft
Overcast 15000 ft
Windchill 34 °F
Dew Point 34 °F
Humidity 89%
Rainfall 0.23 in
Snow Depth Not available.
UV 0 out of 12
Pollen .70 out of 12
Air Quality Not available.
Flu Activity Not available.
METAR KRNO 010255Z 13004KT 10SM SCT015 SCT045 BKN080 OVC150 02/01 A2985 RMK AO2 SLP111 60000 T00220011 53013 $

More Conditions Fewer Conditions

10-Day Weather Forecast

Almanac

Astronomy

Feb. 28, 2015 Rise Set
Actual Time
Civil Twilight
Nautical Twilight
Astronomical Twilight
Moon
Length of Visible Light
Length of Day
Tomorrow will be .
, % of the Moon is Illuminated

Today's Extremes

State Highs State Lows

Community

WunderPhotos

Upload Photos

1,801,282 photos uploaded!

WunderBlogs® & News

Nearby

Air Quality

  Air Quality AQ Index Pollutant
Not available.

Snow Depth

Station Depth Elevation

Earthquake Activity

City Distance Mag. Time & Date
Minimum magnitude displayed is 2.5.

Coastal Water Temperatures

Place Temperature

Nearby Weather Stations